sensor_id;sensor_type;location;lat;lon;timestamp;pressure;altitude;pressure_sealevel;temperature;humidity
68656;BME280;55638;51.122;13.606;2022-09-01T00:01:23;100687.41;;;10.60;59.03
68656;BME280;55638;51.122;13.606;2022-09-01T00:02:57;100683.97;;;10.58;59.18
68656;BME280;55638;51.122;13.606;2022-09-01T00:04:29;100684.97;;;10.57;59.25
68656;BME280;55638;51.122;13.606;2022-09-01T00:06:01;100691.31;;;10.56;59.10
68656;BME280;55638;51.122;13.606;2022-09-01T00:07:34;100695.75;;;10.57;59.31
68656;BME280;55638;51.122;13.606;2022-09-01T00:09:12;100694.03;;;10.56;59.42
68656;BME280;55638;51.122;13.606;2022-09-01T00:10:44;100697.59;;;10.57;59.29
68656;BME280;55638;51.122;13.606;2022-09-01T00:12:17;100691.31;;;10.56;59.20
68656;BME280;55638;51.122;13.606;2022-09-01T00:13:49;100693.16;;;10.56;59.38
68656;BME280;55638;51.122;13.606;2022-09-01T00:15:21;100689.63;;;10.55;59.42
68656;BME280;55638;51.122;13.606;2022-09-01T00:16:53;100697.59;;;10.57;59.48
68656;BME280;55638;51.122;13.606;2022-09-01T00:18:25;100691.31;;;10.56;59.58
68656;BME280;55638;51.122;13.606;2022-09-01T00:19:57;100694.03;;;10.56;59.58
68656;BME280;55638;51.122;13.606;2022-09-01T00:21:35;100696.72;;;10.56;60.09
68656;BME280;55638;51.122;13.606;2022-09-01T00:23:07;100693.06;;;10.57;59.82
68656;BME280;55638;51.122;13.606;2022-09-01T00:24:39;100693.91;;;10.58;60.12
68656;BME280;55638;51.122;13.606;2022-09-01T00:26:11;100688.25;;;10.61;59.96
68656;BME280;55638;51.122;13.606;2022-09-01T00:27:43;100699.94;;;10.61;59.91
68656;BME280;55638;51.122;13.606;2022-09-01T00:29:15;100683.72;;;10.61;59.90
68656;BME280;55638;51.122;13.606;2022-09-01T00:30:47;100685.41;;;10.62;60.05
68656;BME280;55638;51.122;13.606;2022-09-01T00:32:19;100680.88;;;10.63;59.96
68656;BME280;55638;51.122;13.606;2022-09-01T00:33:51;100680.75;;;10.65;59.96
68656;BME280;55638;51.122;13.606;2022-09-01T00:35:23;100685.19;;;10.66;60.05
68656;BME280;55638;51.122;13.606;2022-09-01T00:36:56;100686.91;;;10.67;60.15
68656;BME280;55638;51.122;13.606;2022-09-01T00:38:28;100690.34;;;10.69;60.14
68656;BME280;55638;51.122;13.606;2022-09-01T00:39:59;100684.94;;;10.69;59.82
68656;BME280;55638;51.122;13.606;2022-09-01T00:41:33;100685.69;;;10.71;60.10
68656;BME280;55638;51.122;13.606;2022-09-01T00:43:17;100681.22;;;10.70;60.60
68656;BME280;55638;51.122;13.606;2022-09-01T00:44:51;100685.53;;;10.72;59.82
68656;BME280;55638;51.122;13.606;2022-09-01T00:46:27;100680.97;;;10.73;60.01
68656;BME280;55638;51.122;13.606;2022-09-01T00:47:59;100684.69;;;10.72;59.83
68656;BME280;55638;51.122;13.606;2022-09-01T00:49:39;100686.53;;;10.71;60.08
68656;BME280;55638;51.122;13.606;2022-09-01T00:51:12;100689.22;;;10.71;59.67
68656;BME280;55638;51.122;13.606;2022-09-01T00:52:47;100678.53;;;10.70;60.06
68656;BME280;55638;51.122;13.606;2022-09-01T00:54:24;100680.38;;;10.69;59.63
68656;BME280;55638;51.122;13.606;2022-09-01T00:55:56;100684.06;;;10.68;59.59
68656;BME280;55638;51.122;13.606;2022-09-01T00:57:28;100680.63;;;10.66;59.43
68656;BME280;55638;51.122;13.606;2022-09-01T00:59:01;100678.06;;;10.65;59.50
68656;BME280;55638;51.122;13.606;2022-09-01T01:00:36;100679.06;;;10.64;59.73
68656;BME280;55638;51.122;13.606;2022-09-01T01:02:14;100676.59;;;10.60;59.45
68656;BME280;55638;51.122;13.606;2022-09-01T01:03:46;100668.75;;;10.57;59.63
68656;BME280;55638;51.122;13.606;2022-09-01T01:05:18;100668.84;;;10.56;59.82
68656;BME280;55638;51.122;13.606;2022-09-01T01:06:55;100669.94;;;10.53;60.08
68656;BME280;55638;51.122;13.606;2022-09-01T01:08:35;100670.91;;;10.52;59.86
68656;BME280;55638;51.122;13.606;2022-09-01T01:10:11;100678.28;;;10.50;59.53
68656;BME280;55638;51.122;13.606;2022-09-01T01:11:43;100679.25;;;10.49;59.69
68656;BME280;55638;51.122;13.606;2022-09-01T01:13:18;100667.84;;;10.46;59.70
68656;BME280;55638;51.122;13.606;2022-09-01T01:14:51;100664.41;;;10.44;59.69
68656;BME280;55638;51.122;13.606;2022-09-01T01:16:25;100676.34;;;10.41;59.71
68656;BME280;55638;51.122;13.606;2022-09-01T01:17:57;100675.59;;;10.39;59.70
68656;BME280;55638;51.122;13.606;2022-09-01T01:19:39;100675.72;;;10.37;60.03
68656;BME280;55638;51.122;13.606;2022-09-01T01:21:38;100675.97;;;10.34;60.19
68656;BME280;55638;51.122;13.606;2022-09-01T01:23:42;100678.91;;;10.31;59.93
68656;BME280;55638;51.122;13.606;2022-09-01T01:25:15;100673.63;;;10.30;59.82
68656;BME280;55638;51.122;13.606;2022-09-01T01:26:50;100677.31;;;10.29;60.04
68656;BME280;55638;51.122;13.606;2022-09-01T01:29:59;100686.75;;;10.23;60.39
68656;BME280;55638;51.122;13.606;2022-09-01T01:31:32;100681.50;;;10.22;60.32
68656;BME280;55638;51.122;13.606;2022-09-01T01:33:06;100684.19;;;10.22;60.53
68656;BME280;55638;51.122;13.606;2022-09-01T01:34:39;100681.72;;;10.19;60.46
68656;BME280;55638;51.122;13.606;2022-09-01T01:36:18;100681.84;;;10.17;60.62
68656;BME280;55638;51.122;13.606;2022-09-01T01:37:52;100681.84;;;10.17;60.48
68656;BME280;55638;51.122;13.606;2022-09-01T01:39:25;100682.81;;;10.16;60.41
68656;BME280;55638;51.122;13.606;2022-09-01T01:40:57;100678.41;;;10.15;60.64
68656;BME280;55638;51.122;13.606;2022-09-01T01:42:31;100678.53;;;10.13;60.86
68656;BME280;55638;51.122;13.606;2022-09-01T01:44:03;100678.53;;;10.13;60.63
68656;BME280;55638;51.122;13.606;2022-09-01T01:45:36;100683.91;;;10.13;60.58
68656;BME280;55638;51.122;13.606;2022-09-01T01:47:11;100679.63;;;10.11;61.04
68656;BME280;55638;51.122;13.606;2022-09-01T01:48:44;100685.91;;;10.11;60.77
68656;BME280;55638;51.122;13.606;2022-09-01T01:50:21;100677.81;;;10.11;60.84
68656;BME280;55638;51.122;13.606;2022-09-01T01:51:54;100676.06;;;10.10;60.67
68656;BME280;55638;51.122;13.606;2022-09-01T01:53:35;100682.44;;;10.09;60.40
68656;BME280;55638;51.122;13.606;2022-09-01T01:55:08;100684.91;;;10.12;60.52
68656;BME280;55638;51.122;13.606;2022-09-01T01:56:48;100680.50;;;10.11;60.63
68656;BME280;55638;51.122;13.606;2022-09-01T01:58:21;100682.44;;;10.09;60.65
68656;BME280;55638;51.122;13.606;2022-09-01T01:59:55;100675.34;;;10.08;60.60
68656;BME280;55638;51.122;13.606;2022-09-01T02:01:28;100673.59;;;10.07;60.71
68656;BME280;55638;51.122;13.606;2022-09-01T02:03:00;100679.13;;;10.06;60.63
68656;BME280;55638;51.122;13.606;2022-09-01T02:04:33;100680.09;;;10.05;60.76
68656;BME280;55638;51.122;13.606;2022-09-01T02:06:09;100677.41;;;10.05;60.46
68656;BME280;55638;51.122;13.606;2022-09-01T02:07:43;100674.84;;;10.03;60.70
68656;BME280;55638;51.122;13.606;2022-09-01T02:09:18;100676.69;;;10.03;60.76
68656;BME280;55638;51.122;13.606;2022-09-01T02:10:53;100676.69;;;10.03;60.74
68656;BME280;55638;51.122;13.606;2022-09-01T02:12:25;100676.69;;;10.03;60.59
68656;BME280;55638;51.122;13.606;2022-09-01T02:13:58;100686.63;;;10.02;60.75
68656;BME280;55638;51.122;13.606;2022-09-01T02:15:36;100678.63;;;10.01;61.00
68656;BME280;55638;51.122;13.606;2022-09-01T02:17:14;100681.47;;;9.99;60.87
68656;BME280;55638;51.122;13.606;2022-09-01T02:18:46;100674.31;;;9.98;60.95
68656;BME280;55638;51.122;13.606;2022-09-01T02:20:18;100678.00;;;9.97;61.12
68656;BME280;55638;51.122;13.606;2022-09-01T02:21:53;100679.00;;;9.96;60.96
68656;BME280;55638;51.122;13.606;2022-09-01T02:23:27;100679.84;;;9.97;60.92
68656;BME280;55638;51.122;13.606;2022-09-01T02:24:58;100678.00;;;9.97;60.77
68656;BME280;55638;51.122;13.606;2022-09-01T02:26:34;100678.88;;;9.98;60.68
68656;BME280;55638;51.122;13.606;2022-09-01T02:28:13;100677.41;;;9.93;60.95
68656;BME280;55638;51.122;13.606;2022-09-01T02:29:48;100677.41;;;9.93;60.73
68656;BME280;55638;51.122;13.606;2022-09-01T02:31:25;100679.34;;;9.91;60.75
68656;BME280;55638;51.122;13.606;2022-09-01T02:32:59;100676.78;;;9.90;60.95
68656;BME280;55638;51.122;13.606;2022-09-01T02:34:32;100669.69;;;9.89;61.03
68656;BME280;55638;51.122;13.606;2022-09-01T02:36:11;100672.47;;;9.87;61.42
68656;BME280;55638;51.122;13.606;2022-09-01T02:37:44;100673.31;;;9.88;61.23
68656;BME280;55638;51.122;13.606;2022-09-01T02:39:23;100676.03;;;9.88;61.38
68656;BME280;55638;51.122;13.606;2022-09-01T02:40:56;100673.31;;;9.88;61.21
68656;BME280;55638;51.122;13.606;2022-09-01T02:42:29;100673.31;;;9.88;61.26
68656;BME280;55638;51.122;13.606;2022-09-01T02:44:02;100665.25;;;9.88;61.29
68656;BME280;55638;51.122;13.606;2022-09-01T02:45:35;100667.06;;;9.87;61.49
68656;BME280;55638;51.122;13.606;2022-09-01T02:47:07;100669.69;;;9.89;61.36
68656;BME280;55638;51.122;13.606;2022-09-01T02:48:42;100663.38;;;9.88;61.41
68656;BME280;55638;51.122;13.606;2022-09-01T02:50:17;100659.75;;;9.89;61.46
68656;BME280;55638;51.122;13.606;2022-09-01T02:51:51;100659.75;;;9.89;61.53
68656;BME280;55638;51.122;13.606;2022-09-01T02:53:25;100659.59;;;9.91;61.37
68656;BME280;55638;51.122;13.606;2022-09-01T02:54:56;100658.66;;;9.92;61.56
68656;BME280;55638;51.122;13.606;2022-09-01T02:56:29;100657.66;;;9.93;61.84
68656;BME280;55638;51.122;13.606;2022-09-01T02:58:00;100655.69;;;9.95;61.74
68656;BME280;55638;51.122;13.606;2022-09-01T02:59:33;100662.06;;;9.94;61.68
68656;BME280;55638;51.122;13.606;2022-09-01T03:01:17;100661.81;;;9.97;61.82
68656;BME280;55638;51.122;13.606;2022-09-01T03:03:00;100672.50;;;9.99;61.99
68656;BME280;55638;51.122;13.606;2022-09-01T03:04:32;100668.69;;;10.01;61.55
68656;BME280;55638;51.122;13.606;2022-09-01T03:06:06;100666.00;;;10.01;61.73
68656;BME280;55638;51.122;13.606;2022-09-01T03:07:40;100672.28;;;10.02;61.60
68656;BME280;55638;51.122;13.606;2022-09-01T03:09:15;100667.72;;;10.02;61.75
68656;BME280;55638;51.122;13.606;2022-09-01T03:10:49;100657.78;;;10.03;61.74
68656;BME280;55638;51.122;13.606;2022-09-01T03:12:22;100666.75;;;10.03;61.67
68656;BME280;55638;51.122;13.606;2022-09-01T03:13:54;100662.19;;;10.04;61.71
68656;BME280;55638;51.122;13.606;2022-09-01T03:15:27;100663.81;;;10.06;61.82
68656;BME280;55638;51.122;13.606;2022-09-01T03:16:59;100664.78;;;10.05;61.70
68656;BME280;55638;51.122;13.606;2022-09-01T03:18:31;100657.66;;;10.04;61.64
68656;BME280;55638;51.122;13.606;2022-09-01T03:20:03;100657.56;;;10.06;61.55
68656;BME280;55638;51.122;13.606;2022-09-01T03:21:39;100661.09;;;10.06;61.62
68656;BME280;55638;51.122;13.606;2022-09-01T03:23:14;100657.56;;;10.06;61.68
68656;BME280;55638;51.122;13.606;2022-09-01T03:24:51;100663.81;;;10.06;61.39
68656;BME280;55638;51.122;13.606;2022-09-01T03:26:23;100666.50;;;10.06;61.34
68656;BME280;55638;51.122;13.606;2022-09-01T03:27:57;100664.78;;;10.05;61.23
68656;BME280;55638;51.122;13.606;2022-09-01T03:29:33;100661.22;;;10.05;61.18
68656;BME280;55638;51.122;13.606;2022-09-01T03:31:07;100655.94;;;10.03;61.34
68656;BME280;55638;51.122;13.606;2022-09-01T03:32:39;100659.63;;;10.02;61.30
68656;BME280;55638;51.122;13.606;2022-09-01T03:34:13;100661.59;;;10.00;61.18
68656;BME280;55638;51.122;13.606;2022-09-01T03:35:53;100651.88;;;9.98;61.18
68656;BME280;55638;51.122;13.606;2022-09-01T03:37:24;100658.28;;;9.97;61.15
68656;BME280;55638;51.122;13.606;2022-09-01T03:38:59;100656.66;;;9.94;60.99
68656;BME280;55638;51.122;13.606;2022-09-01T03:40:34;100653.25;;;9.92;61.15
68656;BME280;55638;51.122;13.606;2022-09-01T03:42:06;100653.47;;;9.89;60.86
68656;BME280;55638;51.122;13.606;2022-09-01T03:43:43;100655.44;;;9.87;60.85
68656;BME280;55638;51.122;13.606;2022-09-01T03:45:17;100658.38;;;9.84;60.92
68656;BME280;55638;51.122;13.606;2022-09-01T03:46:51;100654.19;;;9.80;61.02
68656;BME280;55638;51.122;13.606;2022-09-01T03:48:24;100666.94;;;9.78;60.85
68656;BME280;55638;51.122;13.606;2022-09-01T03:49:59;100664.47;;;9.75;60.95
68656;BME280;55638;51.122;13.606;2022-09-01T03:51:33;100676.50;;;9.71;60.98
68656;BME280;55638;51.122;13.606;2022-09-01T03:53:06;100664.09;;;9.68;60.99
68656;BME280;55638;51.122;13.606;2022-09-01T03:54:38;100666.16;;;9.64;60.98
68656;BME280;55638;51.122;13.606;2022-09-01T03:56:10;100669.09;;;9.61;61.35
68656;BME280;55638;51.122;13.606;2022-09-01T03:57:44;100672.88;;;9.59;61.13
68656;BME280;55638;51.122;13.606;2022-09-01T03:59:18;100666.88;;;9.55;61.19
68656;BME280;55638;51.122;13.606;2022-09-01T04:00:56;100673.34;;;9.53;61.63
68656;BME280;55638;51.122;13.606;2022-09-01T04:02:28;100673.50;;;9.51;61.30
68656;BME280;55638;51.122;13.606;2022-09-01T04:04:01;100677.28;;;9.49;61.38
68656;BME280;55638;51.122;13.606;2022-09-01T04:05:35;100670.16;;;9.48;61.55
68656;BME280;55638;51.122;13.606;2022-09-01T04:07:08;100672.94;;;9.46;61.65
68656;BME280;55638;51.122;13.606;2022-09-01T04:08:46;100670.38;;;9.44;61.53
68656;BME280;55638;51.122;13.606;2022-09-01T04:10:17;100674.91;;;9.44;61.58
68656;BME280;55638;51.122;13.606;2022-09-01T04:11:49;100675.84;;;9.43;61.62
68656;BME280;55638;51.122;13.606;2022-09-01T04:13:28;100667.06;;;9.41;61.97
68656;BME280;55638;51.122;13.606;2022-09-01T04:15:01;100663.50;;;9.40;61.77
68656;BME280;55638;51.122;13.606;2022-09-01T04:16:34;100668.91;;;9.40;62.09
68656;BME280;55638;51.122;13.606;2022-09-01T04:18:24;100662.66;;;9.40;62.10
68656;BME280;55638;51.122;13.606;2022-09-01T04:19:56;100676.97;;;9.40;62.26
68656;BME280;55638;51.122;13.606;2022-09-01T04:21:28;100669.75;;;9.41;62.15
68656;BME280;55638;51.122;13.606;2022-09-01T04:23:02;100675.13;;;9.41;61.92
68656;BME280;55638;51.122;13.606;2022-09-01T04:24:41;100672.44;;;9.41;62.27
68656;BME280;55638;51.122;13.606;2022-09-01T04:26:17;100672.31;;;9.42;62.18
68656;BME280;55638;51.122;13.606;2022-09-01T04:27:55;100673.16;;;9.43;62.38
68656;BME280;55638;51.122;13.606;2022-09-01T04:29:29;100665.97;;;9.43;62.31
68656;BME280;55638;51.122;13.606;2022-09-01T04:31:06;100664.97;;;9.44;62.36
68656;BME280;55638;51.122;13.606;2022-09-01T04:32:41;100672.94;;;9.46;62.46
68656;BME280;55638;51.122;13.606;2022-09-01T04:34:16;100669.38;;;9.45;62.45
68656;BME280;55638;51.122;13.606;2022-09-01T04:35:48;100672.00;;;9.47;62.37
68656;BME280;55638;51.122;13.606;2022-09-01T04:37:21;100668.31;;;9.48;62.40
68656;BME280;55638;51.122;13.606;2022-09-01T04:39:00;100666.38;;;9.50;62.59
68656;BME280;55638;51.122;13.606;2022-09-01T04:40:32;100669.09;;;9.50;62.45
68656;BME280;55638;51.122;13.606;2022-09-01T04:42:05;100675.19;;;9.52;62.29
68656;BME280;55638;51.122;13.606;2022-09-01T04:43:39;100675.19;;;9.52;62.30
68656;BME280;55638;51.122;13.606;2022-09-01T04:45:11;100676.06;;;9.53;62.59
68656;BME280;55638;51.122;13.606;2022-09-01T04:46:48;100676.94;;;9.53;62.41
68656;BME280;55638;51.122;13.606;2022-09-01T04:48:21;100678.66;;;9.54;62.44
68656;BME280;55638;51.122;13.606;2022-09-01T04:49:56;100683.06;;;9.55;62.44
68656;BME280;55638;51.122;13.606;2022-09-01T04:51:31;100674.00;;;9.56;62.24
68656;BME280;55638;51.122;13.606;2022-09-01T04:53:04;100680.25;;;9.57;62.41
68656;BME280;55638;51.122;13.606;2022-09-01T04:54:41;100681.13;;;9.57;62.35
68656;BME280;55638;51.122;13.606;2022-09-01T04:56:18;100684.66;;;9.58;62.34
68656;BME280;55638;51.122;13.606;2022-09-01T04:58:01;100680.03;;;9.60;62.27
68656;BME280;55638;51.122;13.606;2022-09-01T04:59:40;100677.31;;;9.60;62.26
68656;BME280;55638;51.122;13.606;2022-09-01T05:01:16;100679.78;;;9.63;62.51
68656;BME280;55638;51.122;13.606;2022-09-01T05:02:50;100680.66;;;9.63;62.46
68656;BME280;55638;51.122;13.606;2022-09-01T05:04:27;100683.22;;;9.65;62.40
68656;BME280;55638;51.122;13.606;2022-09-01T05:05:59;100687.66;;;9.66;62.53
68656;BME280;55638;51.122;13.606;2022-09-01T05:07:33;100685.81;;;9.66;62.51
68656;BME280;55638;51.122;13.606;2022-09-01T05:09:05;100685.66;;;9.68;62.53
68656;BME280;55638;51.122;13.606;2022-09-01T05:10:48;100692.66;;;9.71;62.33
68656;BME280;55638;51.122;13.606;2022-09-01T05:12:30;100694.28;;;9.73;62.41
68656;BME280;55638;51.122;13.606;2022-09-01T05:14:02;100702.25;;;9.75;62.36
68656;BME280;55638;51.122;13.606;2022-09-01T05:15:40;100700.41;;;9.75;62.43
68656;BME280;55638;51.122;13.606;2022-09-01T05:17:17;100691.22;;;9.78;62.55
68656;BME280;55638;51.122;13.606;2022-09-01T05:18:51;100695.63;;;9.79;62.62
68656;BME280;55638;51.122;13.606;2022-09-01T05:20:29;100695.38;;;9.82;62.54
68656;BME280;55638;51.122;13.606;2022-09-01T05:22:02;100692.44;;;9.85;62.78
68656;BME280;55638;51.122;13.606;2022-09-01T05:23:39;100696.75;;;9.87;62.94
68656;BME280;55638;51.122;13.606;2022-09-01T05:25:12;100694.69;;;9.91;62.90
68656;BME280;55638;51.122;13.606;2022-09-01T05:26:47;100698.84;;;9.95;62.81
68656;BME280;55638;51.122;13.606;2022-09-01T05:28:21;100695.91;;;9.98;63.03
68656;BME280;55638;51.122;13.606;2022-09-01T05:29:55;100692.88;;;10.03;62.93
68656;BME280;55638;51.122;13.606;2022-09-01T05:31:32;100685.38;;;10.06;62.99
68656;BME280;55638;51.122;13.606;2022-09-01T05:33:06;100689.56;;;10.10;62.84
68656;BME280;55638;51.122;13.606;2022-09-01T05:34:42;100690.06;;;10.15;62.88
68656;BME280;55638;51.122;13.606;2022-09-01T05:36:19;100683.44;;;10.20;62.94
68656;BME280;55638;51.122;13.606;2022-09-01T05:37:50;100690.31;;;10.24;62.84
68656;BME280;55638;51.122;13.606;2022-09-01T05:39:25;100697.91;;;10.30;62.70
68656;BME280;55638;51.122;13.606;2022-09-01T05:40:59;100695.84;;;10.33;62.95
68656;BME280;55638;51.122;13.606;2022-09-01T05:42:35;100699.13;;;10.37;62.82
68656;BME280;55638;51.122;13.606;2022-09-01T05:44:11;100701.34;;;10.43;62.72
68656;BME280;55638;51.122;13.606;2022-09-01T05:45:44;100697.44;;;10.47;62.57
68656;BME280;55638;51.122;13.606;2022-09-01T05:47:38;100698.91;;;10.51;62.62
68656;BME280;55638;51.122;13.606;2022-09-01T05:49:10;100696.84;;;10.55;62.43
68656;BME280;55638;51.122;13.606;2022-09-01T05:50:44;100701.03;;;10.59;62.44
68656;BME280;55638;51.122;13.606;2022-09-01T05:52:18;100697.97;;;10.64;62.25
68656;BME280;55638;51.122;13.606;2022-09-01T05:53:56;100695.97;;;10.66;62.23
68656;BME280;55638;51.122;13.606;2022-09-01T05:55:31;100701.88;;;10.71;62.19
68656;BME280;55638;51.122;13.606;2022-09-01T05:57:08;100695.25;;;10.75;62.00
68656;BME280;55638;51.122;13.606;2022-09-01T05:59:00;100696.69;;;10.79;62.15
68656;BME280;55638;51.122;13.606;2022-09-01T06:00:54;100697.19;;;10.84;62.35
68656;BME280;55638;51.122;13.606;2022-09-01T06:02:29;100696.94;;;10.87;62.19
68656;BME280;55638;51.122;13.606;2022-09-01T06:04:02;100701.97;;;10.92;62.18
68656;BME280;55638;51.122;13.606;2022-09-01T06:05:39;100694.47;;;10.95;62.29
68656;BME280;55638;51.122;13.606;2022-09-01T06:07:15;100699.25;;;11.03;62.41
68656;BME280;55638;51.122;13.606;2022-09-01T06:08:54;100706.97;;;11.07;62.56
68656;BME280;55638;51.122;13.606;2022-09-01T06:10:31;100700.19;;;11.13;62.70
68656;BME280;55638;51.122;13.606;2022-09-01T06:12:03;100701.41;;;11.20;62.75
68656;BME280;55638;51.122;13.606;2022-09-01T06:13:34;100700.91;;;11.26;62.80
68656;BME280;55638;51.122;13.606;2022-09-01T06:15:06;100707.38;;;11.35;62.58
68656;BME280;55638;51.122;13.606;2022-09-01T06:16:50;100704.03;;;11.43;62.64
68656;BME280;55638;51.122;13.606;2022-09-01T06:18:25;100701.53;;;11.51;62.62
68656;BME280;55638;51.122;13.606;2022-09-01T06:20:01;100709.75;;;11.61;62.51
68656;BME280;55638;51.122;13.606;2022-09-01T06:21:43;100709.72;;;11.72;62.44
68656;BME280;55638;51.122;13.606;2022-09-01T06:23:16;100715.31;;;11.80;62.51
68656;BME280;55638;51.122;13.606;2022-09-01T06:24:49;100711.13;;;11.87;62.48
68656;BME280;55638;51.122;13.606;2022-09-01T06:26:34;100712.03;;;11.97;62.21
68656;BME280;55638;51.122;13.606;2022-09-01T06:28:06;100714.06;;;12.05;61.98
68656;BME280;55638;51.122;13.606;2022-09-01T06:29:39;100707.00;;;12.14;61.94
68656;BME280;55638;51.122;13.606;2022-09-01T06:31:11;100706.22;;;12.23;61.78
68656;BME280;55638;51.122;13.606;2022-09-01T06:32:43;100704.53;;;12.32;61.66
68656;BME280;55638;51.122;13.606;2022-09-01T06:34:16;100696.59;;;12.40;61.39
68656;BME280;55638;51.122;13.606;2022-09-01T06:35:50;100697.59;;;12.48;61.25
68656;BME280;55638;51.122;13.606;2022-09-01T06:37:24;100700.53;;;12.57;61.17
68656;BME280;55638;51.122;13.606;2022-09-01T06:39:02;100699.00;;;12.64;60.84
68656;BME280;55638;51.122;13.606;2022-09-01T06:40:35;100701.03;;;12.71;60.84
68656;BME280;55638;51.122;13.606;2022-09-01T06:42:10;100697.63;;;12.79;60.67
68656;BME280;55638;51.122;13.606;2022-09-01T06:43:53;100704.19;;;12.86;60.81
68656;BME280;55638;51.122;13.606;2022-09-01T06:45:25;100699.94;;;12.93;60.35
68656;BME280;55638;51.122;13.606;2022-09-01T06:46:57;100711.97;;;13.01;59.95
68656;BME280;55638;51.122;13.606;2022-09-01T06:48:30;100709.66;;;13.06;59.83
68656;BME280;55638;51.122;13.606;2022-09-01T06:50:07;100715.53;;;13.11;59.59
68656;BME280;55638;51.122;13.606;2022-09-01T06:51:39;100715.97;;;13.16;59.57
68656;BME280;55638;51.122;13.606;2022-09-01T06:53:12;100712.84;;;13.21;59.92
68656;BME280;55638;51.122;13.606;2022-09-01T06:55:06;100715.84;;;13.27;59.75
68656;BME280;55638;51.122;13.606;2022-09-01T06:56:39;100716.28;;;13.32;59.82
68656;BME280;55638;51.122;13.606;2022-09-01T06:58:15;100715.72;;;13.38;59.87
68656;BME280;55638;51.122;13.606;2022-09-01T06:59:54;100712.47;;;13.45;59.88
68656;BME280;55638;51.122;13.606;2022-09-01T07:01:26;100715.47;;;13.51;59.76
68656;BME280;55638;51.122;13.606;2022-09-01T07:03:00;100717.47;;;13.59;59.42
68656;BME280;55638;51.122;13.606;2022-09-01T07:04:45;100717.75;;;13.65;59.27
68656;BME280;55638;51.122;13.606;2022-09-01T07:06:19;100718.06;;;13.72;59.48
68656;BME280;55638;51.122;13.606;2022-09-01T07:08:20;100718.91;;;13.82;59.65
68656;BME280;55638;51.122;13.606;2022-09-01T07:10:22;100717.03;;;13.93;59.19
68656;BME280;55638;51.122;13.606;2022-09-01T07:12:05;100721.72;;;14.00;59.11
68656;BME280;55638;51.122;13.606;2022-09-01T07:14:01;100721.69;;;14.10;58.76
68656;BME280;55638;51.122;13.606;2022-09-01T07:15:51;100716.41;;;14.18;58.94
68656;BME280;55638;51.122;13.606;2022-09-01T07:17:49;100719.94;;;14.28;58.59
68656;BME280;55638;51.122;13.606;2022-09-01T07:19:24;100714.66;;;14.37;58.96
68656;BME280;55638;51.122;13.606;2022-09-01T07:21:18;100722.75;;;14.46;58.37
68656;BME280;55638;51.122;13.606;2022-09-01T07:23:10;100719.16;;;14.55;58.62
68656;BME280;55638;51.122;13.606;2022-09-01T07:24:43;100721.16;;;14.63;57.81
68656;BME280;55638;51.122;13.606;2022-09-01T07:26:45;100727.41;;;14.73;58.13
68656;BME280;55638;51.122;13.606;2022-09-01T07:28:21;100727.50;;;14.81;58.48
68656;BME280;55638;51.122;13.606;2022-09-01T07:29:56;100725.72;;;14.90;58.17
68656;BME280;55638;51.122;13.606;2022-09-01T07:31:29;100718.53;;;14.99;57.75
68656;BME280;55638;51.122;13.606;2022-09-01T07:33:26;100721.03;;;15.10;57.83
68656;BME280;55638;51.122;13.606;2022-09-01T07:35:20;100716.28;;;15.22;57.63
68656;BME280;55638;51.122;13.606;2022-09-01T07:36:54;100722.63;;;15.31;57.18
68656;BME280;55638;51.122;13.606;2022-09-01T07:38:48;100721.72;;;15.40;57.06
68656;BME280;55638;51.122;13.606;2022-09-01T07:40:48;100729.97;;;15.48;56.93
68656;BME280;55638;51.122;13.606;2022-09-01T07:43:25;100723.56;;;15.57;55.57
68656;BME280;55638;51.122;13.606;2022-09-01T07:45:29;100725.38;;;15.66;56.42
68656;BME280;55638;51.122;13.606;2022-09-01T07:47:06;100718.63;;;15.70;56.29
68656;BME280;55638;51.122;13.606;2022-09-01T07:49:00;100731.44;;;15.78;56.03
68656;BME280;55638;51.122;13.606;2022-09-01T07:50:54;100726.22;;;15.85;56.77
68656;BME280;55638;51.122;13.606;2022-09-01T07:52:48;100725.28;;;15.94;56.38
68656;BME280;55638;51.122;13.606;2022-09-01T07:54:20;100733.53;;;16.02;56.72
68656;BME280;55638;51.122;13.606;2022-09-01T07:55:55;100724.59;;;16.10;56.11
68656;BME280;55638;51.122;13.606;2022-09-01T07:57:28;100731.63;;;16.20;56.42
68656;BME280;55638;51.122;13.606;2022-09-01T07:59:00;100733.41;;;16.30;55.73
68656;BME280;55638;51.122;13.606;2022-09-01T08:00:32;100733.13;;;16.41;56.03
68656;BME280;55638;51.122;13.606;2022-09-01T08:02:09;100734.38;;;16.55;55.86
68656;BME280;55638;51.122;13.606;2022-09-01T08:03:42;100725.94;;;16.66;56.01
68656;BME280;55638;51.122;13.606;2022-09-01T08:05:17;100726.38;;;16.79;55.38
68656;BME280;55638;51.122;13.606;2022-09-01T08:06:52;100733.91;;;16.94;54.89
68656;BME280;55638;51.122;13.606;2022-09-01T08:08:26;100723.75;;;17.04;54.77
68656;BME280;55638;51.122;13.606;2022-09-01T08:10:00;100721.88;;;17.12;54.21
68656;BME280;55638;51.122;13.606;2022-09-01T08:11:34;100730.09;;;17.21;54.14
68656;BME280;55638;51.122;13.606;2022-09-01T08:13:27;100728.78;;;17.33;53.54
68656;BME280;55638;51.122;13.606;2022-09-01T08:15:02;100731.50;;;17.41;53.41
68656;BME280;55638;51.122;13.606;2022-09-01T08:16:55;100729.50;;;17.51;53.19
68656;BME280;55638;51.122;13.606;2022-09-01T08:18:28;100731.41;;;17.59;53.20
68656;BME280;55638;51.122;13.606;2022-09-01T08:20:26;100726.13;;;17.66;53.00
68656;BME280;55638;51.122;13.606;2022-09-01T08:22:02;100732.59;;;17.73;52.85